createdAt,value
2019-02-27T00:00:22.011Z,47.90
2019-02-27T00:05:30.001Z,45.92
2019-02-27T00:10:39.270Z,44.72
2019-02-27T00:15:45.935Z,44.90
2019-02-27T00:20:54.012Z,44.62
2019-02-27T00:26:02.174Z,44.45
2019-02-27T00:31:11.568Z,44.45
2019-02-27T00:36:18.168Z,45.93
2019-02-27T00:41:26.377Z,51.37
2019-02-27T00:46:34.721Z,45.07
2019-02-27T00:51:44.894Z,44.86
2019-02-27T00:56:50.459Z,45.15
2019-02-27T01:01:59.094Z,46.64
2019-02-27T01:07:07.404Z,49.51
2019-02-27T01:12:15.615Z,50.33
2019-02-27T01:17:24.423Z,53.39
2019-02-27T01:22:31.493Z,52.60
2019-02-27T01:27:39.620Z,51.25
2019-02-27T01:32:47.808Z,49.84
2019-02-27T01:37:55.911Z,50.32
2019-02-27T01:43:06.243Z,47.63
2019-02-27T01:48:11.406Z,46.94
2019-02-27T01:53:19.482Z,46.65
2019-02-27T01:58:27.486Z,48.58
2019-02-27T02:03:35.621Z,50.29
2019-02-27T02:08:47.965Z,50.94
2019-02-27T02:13:51.353Z,52.09
2019-02-27T02:18:59.597Z,53.85
2019-02-27T02:24:08.077Z,54.38
2019-02-27T02:29:17.933Z,55.48
2019-02-27T02:34:23.914Z,54.84
2019-02-27T02:39:32.139Z,56.57
2019-02-27T02:44:40.268Z,58.14
2019-02-27T02:49:48.498Z,58.06
2019-02-27T02:54:56.766Z,58.53
2019-02-27T03:00:04.937Z,59.01
2019-02-27T03:05:13.411Z,58.71
2019-02-27T03:10:21.504Z,60.99
2019-02-27T03:15:29.744Z,60.82
2019-02-27T03:20:37.873Z,58.13
2019-02-27T03:25:46.402Z,58.48
2019-02-27T03:30:54.413Z,58.79
2019-02-27T03:36:03.584Z,58.21
2019-02-27T03:41:10.085Z,56.72
2019-02-27T03:46:18.383Z,55.26
2019-02-27T03:51:26.666Z,53.74
2019-02-27T03:56:35.018Z,52.45
2019-02-27T04:01:43.310Z,50.34
2019-02-27T04:06:53.003Z,49.91
2019-02-27T04:11:59.522Z,50.80
2019-02-27T04:17:07.841Z,49.93
2019-02-27T04:22:15.913Z,50.93
2019-02-27T04:27:23.964Z,49.20
2019-02-27T04:32:32.042Z,49.42
2019-02-27T04:37:40.209Z,47.00
2019-02-27T04:42:48.606Z,48.35
2019-02-27T04:47:56.933Z,46.39
2019-02-27T04:53:05.237Z,46.13
2019-02-27T04:58:13.540Z,45.33
2019-02-27T05:03:22.044Z,42.85
2019-02-27T05:08:30.360Z,44.84
2019-02-27T05:13:38.609Z,43.68
2019-02-27T05:18:46.894Z,43.94
2019-02-27T05:23:55.200Z,44.40
2019-02-27T05:29:04.025Z,45.22
2019-02-27T05:34:13.485Z,45.35
2019-02-27T05:39:20.116Z,45.57
2019-02-27T05:44:28.529Z,44.94
2019-02-27T05:49:36.865Z,43.99
2019-02-27T05:54:45.062Z,45.02
2019-02-27T05:59:53.353Z,46.87
2019-02-27T06:05:01.621Z,42.47
2019-02-27T06:10:10.026Z,39.04
2019-02-27T06:15:18.181Z,36.60
2019-02-27T06:20:26.368Z,37.61
2019-02-27T06:25:34.518Z,36.53
2019-02-27T06:30:42.816Z,34.76
2019-02-27T06:35:51.253Z,35.48
2019-02-27T06:40:59.454Z,35.40
2019-02-27T06:46:07.255Z,35.95
2019-02-27T06:51:19.206Z,35.37
2019-02-27T06:56:17.348Z,34.29
2019-02-27T07:01:25.506Z,34.29
2019-02-27T07:06:33.571Z,34.01
2019-02-27T07:11:45.260Z,33.77
2019-02-27T07:16:49.016Z,32.46
2019-02-27T07:21:57.012Z,31.77
2019-02-27T07:27:05.013Z,31.59
2019-02-27T07:32:13.134Z,31.68
2019-02-27T07:37:21.310Z,33.26
2019-02-27T07:42:31.883Z,31.57
2019-02-27T07:47:36.989Z,30.56
2019-02-27T07:52:45.301Z,31.87
2019-02-27T07:57:58.517Z,31.69
2019-02-27T08:03:00.997Z,31.53
2019-02-27T08:08:08.942Z,29.60
2019-02-27T08:13:17.039Z,30.98
2019-02-27T08:18:30.114Z,30.63
2019-02-27T08:23:32.901Z,28.80
2019-02-27T08:28:41.043Z,29.71
2019-02-27T08:33:49.265Z,28.19
2019-02-27T08:38:57.638Z,29.21
2019-02-27T08:44:05.897Z,29.19
2019-02-27T08:49:14.086Z,29.02
2019-02-27T08:54:22.365Z,28.83
2019-02-27T08:59:30.661Z,28.64
2019-02-27T09:04:39.010Z,28.67
2019-02-27T09:09:51.240Z,28.82
2019-02-27T09:14:55.979Z,30.95
2019-02-27T09:20:02.570Z,31.44
2019-02-27T09:25:11.245Z,29.86
2019-02-27T09:30:19.961Z,31.00
2019-02-27T09:35:32.572Z,32.13
2019-02-27T09:40:38.584Z,32.33
2019-02-27T09:45:46.277Z,33.91
2019-02-27T09:50:51.217Z,31.72
2019-02-27T09:55:59.457Z,31.50
2019-02-27T10:01:07.829Z,30.41
2019-02-27T10:06:16.114Z,31.22
2019-02-27T10:11:24.477Z,29.40
2019-02-27T10:16:34.879Z,29.10
2019-02-27T10:21:41.330Z,29.82
2019-02-27T10:26:48.110Z,29.99
2019-02-27T10:31:58.291Z,31.66
2019-02-27T10:37:03.778Z,38.99
2019-02-27T10:42:11.795Z,32.16
2019-02-27T10:47:20.124Z,32.14
2019-02-27T10:52:28.247Z,32.59
2019-02-27T10:57:38.432Z,30.09
2019-02-27T11:02:47.447Z,32.16
2019-02-27T11:07:52.980Z,31.49
2019-02-27T11:12:59.264Z,32.84
2019-02-27T11:18:07.452Z,31.46
2019-02-27T11:23:13.925Z,32.29
2019-02-27T11:28:21.954Z,30.61
2019-02-27T11:33:32.709Z,31.01
2019-02-27T11:38:43.597Z,30.52
2019-02-27T11:43:41.703Z,29.41
2019-02-27T11:48:50.077Z,29.27
2019-02-27T11:53:58.076Z,29.29
2019-02-27T11:59:06.265Z,28.64
2019-02-27T12:04:14.361Z,30.27
2019-02-27T12:09:22.641Z,32.39
2019-02-27T12:14:30.945Z,29.94
2019-02-27T12:19:42.421Z,30.88
2019-02-27T12:24:47.138Z,31.09
2019-02-27T12:29:55.417Z,29.32
2019-02-27T12:35:03.633Z,32.04
2019-02-27T12:40:11.842Z,30.40
2019-02-27T12:45:20.055Z,31.01
2019-02-27T12:50:31.195Z,27.65
2019-02-27T12:55:36.417Z,27.95
2019-02-27T13:00:43.445Z,27.62
2019-02-27T13:05:51.567Z,25.73
2019-02-27T13:10:59.628Z,25.16
2019-02-27T13:16:07.958Z,25.02
2019-02-27T13:21:20.105Z,22.70
2019-02-27T13:26:23.517Z,21.99
2019-02-27T13:31:31.606Z,23.64
2019-02-27T13:36:39.914Z,21.47
2019-02-27T13:41:47.898Z,20.34
2019-02-27T13:46:57.030Z,21.69
2019-02-27T13:52:03.677Z,22.86
2019-02-27T13:57:11.806Z,22.54
2019-02-27T14:02:20.025Z,20.74
2019-02-27T14:07:28.173Z,21.87
2019-02-27T14:12:36.802Z,21.30
2019-02-27T14:17:44.936Z,21.64
2019-02-27T14:22:53.065Z,24.25
2019-02-27T14:28:01.285Z,21.81
2019-02-27T14:33:11.011Z,23.01
2019-02-27T14:38:16.981Z,24.32
2019-02-27T14:43:27.454Z,22.85
2019-02-27T14:48:32.732Z,22.70
2019-02-27T14:53:40.910Z,24.51
2019-02-27T14:58:49.208Z,22.62
2019-02-27T15:04:00.384Z,23.69
2019-02-27T15:09:06.275Z,23.79
2019-02-27T15:14:12.078Z,24.06
2019-02-27T15:19:20.256Z,22.80
2019-02-27T15:24:28.304Z,25.13
2019-02-27T15:29:36.967Z,24.93
2019-02-27T15:34:45.946Z,24.51
2019-02-27T15:39:52.060Z,24.38
2019-02-27T15:44:58.794Z,25.06
2019-02-27T15:50:06.829Z,24.01
2019-02-27T15:55:15.047Z,22.54
2019-02-27T16:00:23.260Z,21.95
2019-02-27T16:05:31.744Z,23.29
2019-02-27T16:10:42.477Z,22.47
2019-02-27T16:15:48.525Z,22.07
2019-02-27T16:20:54.666Z,23.09
2019-02-27T16:26:02.830Z,23.55
2019-02-27T16:31:11.977Z,22.24
2019-02-27T16:36:20.256Z,21.96
2019-02-27T16:41:29.315Z,21.30
2019-02-27T16:46:36.289Z,21.55
2019-02-27T16:51:46.563Z,22.56
2019-02-27T16:56:50.863Z,22.70
2019-02-27T17:01:48.212Z,24.25
2019-02-27T17:07:11.947Z,22.34
2019-02-27T17:12:06.565Z,21.53
2019-02-27T17:17:10.845Z,22.42
2019-02-27T17:27:57.310Z,22.04
2019-02-27T17:32:54.428Z,21.08
2019-02-27T17:37:30.730Z,21.50
2019-02-27T17:42:38.978Z,20.13
2019-02-27T17:47:47.545Z,21.29
2019-02-27T17:52:55.704Z,21.73
2019-02-27T17:58:03.822Z,20.71
2019-02-27T18:03:25.689Z,19.93
2019-02-27T18:08:21.854Z,20.55
2019-02-27T18:13:33.075Z,20.20
2019-02-27T18:18:37.849Z,20.44
2019-02-27T18:23:48.342Z,20.57
2019-02-27T18:28:46.645Z,20.10
2019-02-27T18:33:58.181Z,23.51
2019-02-27T18:39:01.529Z,21.60
2019-02-27T18:44:08.052Z,22.74
2019-02-27T18:49:18.693Z,22.37
2019-02-27T18:54:15.732Z,21.58
2019-02-27T18:59:29.423Z,23.71
2019-02-27T19:04:35.015Z,23.38
2019-02-27T19:09:39.710Z,22.67
2019-02-27T19:14:54.173Z,24.90
2019-02-27T19:19:55.907Z,22.50
2019-02-27T19:24:53.416Z,23.16
2019-02-27T19:30:06.258Z,22.51
2019-02-27T19:35:10.011Z,23.60
2019-02-27T19:45:23.882Z,23.94
2019-02-27T19:50:33.933Z,23.27
2019-02-27T19:55:32.855Z,23.60
2019-02-27T20:00:48.054Z,24.33
2019-02-27T20:05:50.546Z,25.50
2019-02-27T20:10:57.022Z,25.45
2019-02-27T20:16:05.159Z,23.94
2019-02-27T20:21:13.751Z,23.81
2019-02-27T20:26:24.375Z,25.59
2019-02-27T20:31:29.814Z,33.58
2019-02-27T20:36:38.578Z,25.82
2019-02-27T20:41:46.853Z,25.21
2019-02-27T20:46:55.073Z,26.49
2019-02-27T20:52:04.750Z,25.50
2019-02-27T20:57:13.623Z,26.35
2019-02-27T21:02:22.118Z,25.93
2019-02-27T21:07:30.320Z,27.19
2019-02-27T21:12:40.655Z,26.41
2019-02-27T21:17:47.886Z,26.01
2019-02-27T21:22:59.852Z,26.91
2019-02-27T21:28:06.534Z,26.90
2019-02-27T21:33:12.021Z,26.63
2019-02-27T21:38:20.250Z,26.37
2019-02-27T21:43:27.345Z,27.41
2019-02-27T21:48:35.871Z,28.94
2019-02-27T21:53:44.304Z,26.31
2019-02-27T21:58:52.544Z,26.24
2019-02-27T22:04:00.729Z,25.45
2019-02-27T22:09:10.143Z,25.77
2019-02-27T22:14:17.738Z,26.49
2019-02-27T22:19:24.968Z,25.34
2019-02-27T22:24:33.086Z,25.28
2019-02-27T22:29:41.368Z,26.07
2019-02-27T22:34:50.497Z,24.93
2019-02-27T22:39:58.532Z,26.92
2019-02-27T22:45:06.773Z,27.85
2019-02-27T22:50:14.941Z,32.95
2019-02-27T22:55:23.253Z,28.64
2019-02-27T23:00:31.445Z,26.37
2019-02-27T23:05:39.703Z,26.63
2019-02-27T23:10:47.914Z,27.37
2019-02-27T23:15:58.859Z,27.44
2019-02-27T23:21:03.633Z,27.92
2019-02-27T23:26:11.858Z,27.22
2019-02-27T23:31:22.644Z,27.77
2019-02-27T23:36:27.484Z,28.20
2019-02-27T23:41:35.699Z,29.94
2019-02-27T23:46:49.625Z,30.70
2019-02-27T23:51:51.369Z,30.58
2019-02-27T23:56:59.469Z,33.65
